Time;durP1;ratioP1;P1;durP2;ratioP2;P2;SDS_P1;SDS_P2;PMS_P1;PMS_P2;Temp;Humidity;BMP_temperature;BMP_pressure;BME280_temperature;BME280_humidity;BME280_pressure;Samples;Min_cycle;Max_cycle;Signal;HPM_P1;HPM_P2
2023/10/27 00:00:22;;;;;;;0.55;0.20;;;;;;;;;;5090572;28;20047;-76
2023/10/27 00:02:48;;;;;;;15.15;2.95;;;;;;;;;;5074705;28;20483;-76
2023/10/27 00:05:13;;;;;;;9.63;1.90;;;;;;;;;;5095914;28;20058;-76
2023/10/27 00:07:45;;;;;;;6.38;0.90;;;;;;;;;;5096590;28;20032;-75
2023/10/27 00:10:13;;;;;;;16.52;7.68;;;;;;;;;;5096370;28;20035;-76
2023/10/27 00:12:42;;;;;;;17.45;3.38;;;;;;;;;;5096471;28;20040;-75
2023/10/27 00:15:11;;;;;;;9.60;1.43;;;;;;;;;;5061422;28;20028;-75
2023/10/27 00:17:36;;;;;;;0.68;0.50;;;;;;;;;;5096156;28;20032;-75
2023/10/27 00:20:02;;;;;;;15.05;2.67;;;;;;;;;;5096408;28;20093;-75
2023/10/27 00:22:40;;;;;;;4.00;0.55;;;;;;;;;;5096270;28;20095;-75
2023/10/27 00:25:08;;;;;;;0.65;0.65;;;;;;;;;;5096056;28;20380;-73
2023/10/27 00:27:34;;;;;;;26.05;3.30;;;;;;;;;;5096016;28;20028;-74
2023/10/27 00:30:05;;;;;;;11.18;2.60;;;;;;;;;;5095905;28;20038;-75
2023/10/27 00:32:43;;;;;;;5.05;1.05;;;;;;;;;;5106547;28;20471;-75
2023/10/27 00:35:09;;;;;;;14.77;2.53;;;;;;;;;;5116595;28;20024;-74
2023/10/27 00:37:41;;;;;;;24.98;3.42;;;;;;;;;;5116998;28;20035;-75
2023/10/27 00:40:10;;;;;;;0.20;0.20;;;;;;;;;;5098824;28;20076;-75
2023/10/27 00:42:36;;;;;;;7.28;1.75;;;;;;;;;;5116018;28;20028;-74
2023/10/27 00:45:02;;;;;;;8.13;1.65;;;;;;;;;;5116210;28;20498;-75
2023/10/27 00:47:33;;;;;;;21.05;3.78;;;;;;;;;;5116594;28;20031;-76
2023/10/27 00:50:03;;;;;;;2.47;0.85;;;;;;;;;;5097855;28;20088;-76
2023/10/27 00:52:30;;;;;;;0.20;0.20;;;;;;;;;;5116034;28;20044;-75
2023/10/27 00:54:56;;;;;;;23.48;3.13;;;;;;;;;;5080730;28;20028;-76
2023/10/27 00:57:24;;;;;;;33.03;3.53;;;;;;;;;;5116062;28;20040;-75
2023/10/27 00:59:50;;;;;;;2.03;1.02;;;;;;;;;;5116250;28;20032;-76
2023/10/27 01:02:21;;;;;;;11.60;1.25;;;;;;;;;;5115564;28;20031;-75
2023/10/27 01:04:47;;;;;;;14.07;1.63;;;;;;;;;;5114877;28;20420;-76
2023/10/27 01:07:13;;;;;;;10.25;2.25;;;;;;;;;;5098020;28;20036;-75
2023/10/27 01:09:39;;;;;;;14.93;2.35;;;;;;;;;;5115781;28;20386;-75
2023/10/27 01:12:04;;;;;;;7.40;2.53;;;;;;;;;;5115992;28;20035;-74
2023/10/27 01:14:33;;;;;;;5.20;1.75;;;;;;;;;;5114970;28;20398;-76
2023/10/27 01:17:01;;;;;;;16.42;1.67;;;;;;;;;;5080920;28;20123;-75
2023/10/27 01:19:30;;;;;;;10.73;1.92;;;;;;;;;;5115115;28;20559;-76
2023/10/27 01:21:58;;;;;;;12.10;2.30;;;;;;;;;;5115412;28;20031;-75
2023/10/27 01:24:30;;;;;;;0.82;0.52;;;;;;;;;;5115560;28;20036;-77
2023/10/27 01:26:58;;;;;;;14.65;2.78;;;;;;;;;;5115681;28;20069;-76
2023/10/27 01:29:53;;;;;;;9.10;1.83;;;;;;;;;;5115411;28;20116;-75
2023/10/27 01:32:19;;;;;;;17.42;3.22;;;;;;;;;;5095025;28;20265;-75
2023/10/27 01:34:45;;;;;;;12.13;3.15;;;;;;;;;;5115468;28;20045;-75
2023/10/27 01:37:14;;;;;;;8.25;0.88;;;;;;;;;;5097192;28;20110;-76
2023/10/27 01:39:47;;;;;;;2.22;0.88;;;;;;;;;;5115656;28;20036;-76
2023/10/27 01:42:15;;;;;;;2.35;0.55;;;;;;;;;;5115377;28;20070;-77
2023/10/27 01:44:47;;;;;;;0.50;0.50;;;;;;;;;;5097024;28;20035;-75
2023/10/27 01:47:19;;;;;;;0.20;0.20;;;;;;;;;;5115284;28;20434;-75
2023/10/27 01:49:44;;;;;;;1.23;0.67;;;;;;;;;;5115097;28;20130;-75
2023/10/27 01:52:10;;;;;;;25.85;3.38;;;;;;;;;;5111003;28;20834;-73
2023/10/27 01:54:39;;;;;;;18.85;3.25;;;;;;;;;;5114936;28;20020;-75
2023/10/27 01:57:13;;;;;;;5.28;1.95;;;;;;;;;;5115213;28;20035;-75
2023/10/27 01:59:44;;;;;;;0.20;0.20;;;;;;;;;;5096885;28;20062;-74
2023/10/27 02:02:15;;;;;;;1.65;0.52;;;;;;;;;;5115094;28;20032;-75
2023/10/27 02:04:44;;;;;;;17.85;2.10;;;;;;;;;;5115013;28;20028;-76
2023/10/27 02:07:10;;;;;;;1.35;0.60;;;;;;;;;;5096529;28;20089;-75
2023/10/27 02:09:42;;;;;;;1.55;0.52;;;;;;;;;;5079633;28;20127;-75
2023/10/27 02:12:10;;;;;;;16.55;2.92;;;;;;;;;;5114846;28;20039;-75
2023/10/27 02:14:39;;;;;;;11.88;1.60;;;;;;;;;;5114799;28;20486;-75
2023/10/27 02:17:05;;;;;;;18.42;3.78;;;;;;;;;;5097214;28;20387;-74
2023/10/27 02:19:31;;;;;;;2.45;1.83;;;;;;;;;;5113934;28;20122;-75
2023/10/27 02:21:57;;;;;;;12.07;2.55;;;;;;;;;;5114773;28;20027;-75
2023/10/27 02:24:22;;;;;;;6.35;1.98;;;;;;;;;;5114469;28;20039;-75
2023/10/27 02:26:51;;;;;;;0.20;0.20;;;;;;;;;;5114128;28;20140;-74
2023/10/27 02:29:18;;;;;;;18.03;1.63;;;;;;;;;;5096182;28;20110;-76
2023/10/27 02:31:46;;;;;;;6.93;2.47;;;;;;;;;;5095900;28;20678;-75
2023/10/27 02:34:18;;;;;;;21.63;2.67;;;;;;;;;;5096041;28;20039;-76
2023/10/27 02:36:43;;;;;;;2.67;0.65;;;;;;;;;;5095582;28;20039;-74
2023/10/27 02:39:12;;;;;;;5.05;2.38;;;;;;;;;;5093543;28;20036;-74
2023/10/27 02:41:41;;;;;;;9.20;1.92;;;;;;;;;;5094317;28;20027;-76
2023/10/27 02:44:09;;;;;;;5.63;0.98;;;;;;;;;;5093861;28;20039;-74
2023/10/27 02:46:38;;;;;;;8.20;0.98;;;;;;;;;;5093936;28;20514;-75
2023/10/27 02:49:04;;;;;;;3.22;0.95;;;;;;;;;;5093821;28;20032;-76
2023/10/27 02:51:36;;;;;;;2.17;1.33;;;;;;;;;;5103758;28;20382;-78
2023/10/27 02:54:30;;;;;;;16.83;3.58;;;;;;;;;;5096189;28;20032;-74
2023/10/27 02:56:58;;;;;;;20.35;2.85;;;;;;;;;;5111570;28;20039;-73
2023/10/27 02:59:24;;;;;;;0.75;0.40;;;;;;;;;;5114001;28;20495;-74
2023/10/27 03:01:50;;;;;;;12.23;1.85;;;;;;;;;;5113045;28;20048;-75
2023/10/27 03:04:16;;;;;;;6.55;1.05;;;;;;;;;;5086637;28;20118;-75
2023/10/27 03:06:51;;;;;;;4.40;1.60;;;;;;;;;;5093288;28;20300;-75
2023/10/27 03:09:34;;;;;;;0.50;0.50;;;;;;;;;;5103883;28;20028;-75
2023/10/27 03:12:00;;;;;;;3.30;0.75;;;;;;;;;;5108457;28;20027;-75
2023/10/27 03:14:28;;;;;;;7.22;1.25;;;;;;;;;;5091794;28;20050;-76
2023/10/27 03:17:00;;;;;;;0.40;0.40;;;;;;;;;;5110009;28;20023;-76
2023/10/27 03:19:29;;;;;;;0.20;0.20;;;;;;;;;;5109815;28;20036;-76
2023/10/27 03:21:54;;;;;;;2.17;0.68;;;;;;;;;;5109121;28;20054;-76
2023/10/27 03:24:22;;;;;;;1.23;0.30;;;;;;;;;;5109706;28;20028;-76
2023/10/27 03:26:48;;;;;;;9.95;1.50;;;;;;;;;;5109581;28;20494;-77
2023/10/27 03:29:25;;;;;;;5.97;1.13;;;;;;;;;;5109625;28;20035;-77
2023/10/27 03:31:51;;;;;;;0.32;0.30;;;;;;;;;;5109071;28;20319;-75
2023/10/27 03:34:19;;;;;;;0.20;0.20;;;;;;;;;;5109817;28;20391;-75
2023/10/27 03:36:48;;;;;;;6.13;1.20;;;;;;;;;;5109356;28;20037;-75
2023/10/27 03:39:13;;;;;;;0.20;0.20;;;;;;;;;;5106930;28;20028;-74
2023/10/27 03:41:42;;;;;;;2.83;0.57;;;;;;;;;;5094643;28;20035;-74
2023/10/27 03:44:11;;;;;;;14.48;1.40;;;;;;;;;;5086053;28;20040;-74
2023/10/27 03:46:39;;;;;;;0.45;0.45;;;;;;;;;;5088384;28;20375;-75
2023/10/27 03:49:07;;;;;;;3.30;0.40;;;;;;;;;;5106571;28;20035;-72
2023/10/27 03:51:36;;;;;;;18.73;3.20;;;;;;;;;;5090164;28;20034;-75
2023/10/27 03:54:12;;;;;;;5.72;1.08;;;;;;;;;;5109381;28;20036;-75
2023/10/27 03:56:38;;;;;;;1.23;1.13;;;;;;;;;;5090930;28;20040;-75
2023/10/27 03:59:03;;;;;;;0.77;0.77;;;;;;;;;;5109151;28;20035;-76
2023/10/27 04:01:32;;;;;;;1.58;0.85;;;;;;;;;;5091208;28;20092;-76
2023/10/27 04:04:03;;;;;;;10.80;6.72;;;;;;;;;;5108216;28;20038;-75
2023/10/27 04:06:29;;;;;;;3.50;0.68;;;;;;;;;;5090551;28;20059;-74
2023/10/27 04:08:55;;;;;;;0.30;0.30;;;;;;;;;;5106925;28;20131;-73
2023/10/27 04:11:23;;;;;;;0.20;0.20;;;;;;;;;;5074125;28;20051;-74
2023/10/27 04:13:49;;;;;;;5.22;0.75;;;;;;;;;;5095032;28;20028;-75
2023/10/27 04:16:24;;;;;;;1.25;0.52;;;;;;;;;;5090650;28;20077;-75
2023/10/27 04:18:53;;;;;;;7.20;1.33;;;;;;;;;;5092085;28;20028;-75
2023/10/27 04:21:24;;;;;;;3.67;1.17;;;;;;;;;;5104446;28;20027;-75
2023/10/27 04:23:55;;;;;;;0.20;0.20;;;;;;;;;;5085310;28;20040;-75
2023/10/27 04:26:21;;;;;;;1.27;0.55;;;;;;;;;;5109021;28;20500;-75
2023/10/27 04:28:50;;;;;;;8.15;1.38;;;;;;;;;;5089870;28;20085;-74
2023/10/27 04:31:16;;;;;;;6.43;1.92;;;;;;;;;;5107863;28;20035;-75
2023/10/27 04:33:50;;;;;;;10.10;3.00;;;;;;;;;;5110265;28;20518;-76
2023/10/27 04:36:19;;;;;;;2.65;0.68;;;;;;;;;;5109794;28;20045;-75
2023/10/27 04:38:44;;;;;;;4.82;0.85;;;;;;;;;;5108912;28;20093;-75
2023/10/27 04:41:18;;;;;;;14.05;1.42;;;;;;;;;;5088977;28;20036;-76
2023/10/27 04:43:44;;;;;;;0.40;0.40;;;;;;;;;;5086980;28;20044;-76
2023/10/27 04:46:13;;;;;;;7.38;1.75;;;;;;;;;;5071582;28;20040;-75
2023/10/27 04:48:41;;;;;;;1.45;1.05;;;;;;;;;;5088709;28;20103;-75
2023/10/27 04:51:10;;;;;;;4.43;1.77;;;;;;;;;;5073118;28;20459;-74
2023/10/27 04:53:36;;;;;;;1.57;0.77;;;;;;;;;;5074439;28;20040;-75
2023/10/27 04:56:16;;;;;;;14.00;3.50;;;;;;;;;;5092160;28;20617;-73
2023/10/27 04:58:46;;;;;;;7.22;0.77;;;;;;;;;;5091940;28;20063;-74
2023/10/27 05:01:13;;;;;;;6.07;0.90;;;;;;;;;;5082807;28;20067;-75
2023/10/27 05:03:39;;;;;;;7.25;1.75;;;;;;;;;;5111493;28;20038;-77
2023/10/27 05:06:09;;;;;;;0.88;0.43;;;;;;;;;;5112621;28;20050;-77
2023/10/27 05:08:35;;;;;;;3.13;0.90;;;;;;;;;;5112037;28;20047;-77
2023/10/27 05:11:01;;;;;;;2.95;2.75;;;;;;;;;;5110582;28;20465;-75
2023/10/27 05:13:33;;;;;;;5.80;1.70;;;;;;;;;;5111108;28;20024;-74
2023/10/27 05:16:03;;;;;;;4.00;0.77;;;;;;;;;;5094326;28;20031;-74
2023/10/27 05:18:30;;;;;;;2.28;1.02;;;;;;;;;;5075707;28;20395;-74
2023/10/27 05:20:56;;;;;;;2.60;0.50;;;;;;;;;;5109666;28;20059;-75
2023/10/27 05:23:22;;;;;;;0.10;0.10;;;;;;;;;;5093349;28;20040;-74
2023/10/27 05:25:52;;;;;;;18.73;2.80;;;;;;;;;;5111121;28;20454;-73
2023/10/27 05:28:18;;;;;;;0.98;0.43;;;;;;;;;;5111001;28;20123;-75
2023/10/27 05:30:50;;;;;;;0.22;0.22;;;;;;;;;;5110279;28;20045;-78
2023/10/27 05:33:24;;;;;;;8.63;1.23;;;;;;;;;;5111543;28;20043;-79
2023/10/27 05:35:52;;;;;;;6.38;0.95;;;;;;;;;;5111048;28;20038;-77
2023/10/27 05:38:18;;;;;;;5.78;1.55;;;;;;;;;;5092949;28;20042;-77
2023/10/27 05:40:43;;;;;;;0.28;0.28;;;;;;;;;;5109358;28;20107;-76
2023/10/27 05:43:09;;;;;;;20.23;2.05;;;;;;;;;;5109373;28;20106;-76
2023/10/27 05:45:35;;;;;;;0.52;0.52;;;;;;;;;;5111115;28;20050;-76
2023/10/27 05:48:00;;;;;;;4.22;1.02;;;;;;;;;;5104146;28;20039;-75
2023/10/27 05:50:27;;;;;;;0.13;0.13;;;;;;;;;;5090491;28;20464;-71
2023/10/27 05:53:01;;;;;;;0.40;0.22;;;;;;;;;;5092837;28;20157;-74
2023/10/27 05:55:29;;;;;;;0.57;0.57;;;;;;;;;;5099526;28;20152;-74
2023/10/27 05:57:58;;;;;;;1.05;0.30;;;;;;;;;;5090392;28;20038;-75
2023/10/27 06:00:24;;;;;;;0.90;0.63;;;;;;;;;;5092829;28;20510;-75
2023/10/27 06:02:53;;;;;;;0.20;0.20;;;;;;;;;;5097399;28;20073;-75
2023/10/27 06:05:19;;;;;;;11.10;1.80;;;;;;;;;;5098631;28;20063;-72
2023/10/27 06:07:47;;;;;;;15.27;1.48;;;;;;;;;;5090093;28;20040;-74
2023/10/27 06:10:13;;;;;;;4.22;0.68;;;;;;;;;;5090180;28;20043;-75
2023/10/27 06:12:39;;;;;;;8.95;1.45;;;;;;;;;;5090023;28;20672;-73
2023/10/27 06:15:05;;;;;;;5.57;1.40;;;;;;;;;;5090356;28;20044;-77
2023/10/27 06:17:32;;;;;;;4.45;1.15;;;;;;;;;;5090379;28;20142;-78
2023/10/27 06:20:04;;;;;;;10.13;1.90;;;;;;;;;;5089878;28;20080;-74
2023/10/27 06:22:30;;;;;;;9.45;1.52;;;;;;;;;;5106447;28;20016;-76
2023/10/27 06:24:56;;;;;;;13.77;2.80;;;;;;;;;;5108317;28;20088;-74
2023/10/27 06:27:22;;;;;;;9.63;1.50;;;;;;;;;;5090947;28;20039;-77
2023/10/27 06:29:53;;;;;;;4.63;0.63;;;;;;;;;;5101750;28;20055;-77
2023/10/27 06:32:22;;;;;;;4.68;0.75;;;;;;;;;;5090528;28;20107;-77
2023/10/27 06:34:55;;;;;;;0.43;0.43;;;;;;;;;;5092352;28;20050;-77
2023/10/27 06:37:21;;;;;;;10.88;1.77;;;;;;;;;;5108574;28;20054;-76
2023/10/27 06:39:50;;;;;;;3.88;1.17;;;;;;;;;;5079221;28;20032;-78
2023/10/27 06:42:18;;;;;;;13.85;1.85;;;;;;;;;;5083922;28;20044;-74
2023/10/27 06:44:52;;;;;;;6.22;0.75;;;;;;;;;;5096895;28;20085;-75
2023/10/27 06:47:21;;;;;;;8.25;2.58;;;;;;;;;;5100761;28;20040;-74
2023/10/27 06:49:49;;;;;;;4.50;1.23;;;;;;;;;;5109312;28;20378;-74
2023/10/27 06:52:17;;;;;;;1.83;0.80;;;;;;;;;;5108396;28;20039;-75
2023/10/27 06:54:43;;;;;;;12.68;3.03;;;;;;;;;;5107441;28;20020;-75
2023/10/27 06:57:10;;;;;;;1.23;0.45;;;;;;;;;;5108587;28;20106;-74
2023/10/27 06:59:38;;;;;;;9.05;2.08;;;;;;;;;;5108323;28;20037;-73
2023/10/27 07:02:03;;;;;;;6.93;1.85;;;;;;;;;;5107325;28;20473;-74
2023/10/27 07:04:34;;;;;;;11.73;2.08;;;;;;;;;;5107135;28;20020;-77
2023/10/27 07:07:00;;;;;;;2.47;0.57;;;;;;;;;;5107657;28;20117;-77
2023/10/27 07:09:26;;;;;;;8.00;1.38;;;;;;;;;;5107651;28;20119;-74
2023/10/27 07:11:51;;;;;;;7.00;1.50;;;;;;;;;;5107876;28;20028;-75
2023/10/27 07:14:17;;;;;;;5.80;1.88;;;;;;;;;;5107936;28;21411;-74
2023/10/27 07:16:46;;;;;;;5.78;1.75;;;;;;;;;;5108266;28;20819;-78
2023/10/27 07:19:14;;;;;;;10.27;1.92;;;;;;;;;;5107581;28;20036;-77
2023/10/27 07:21:41;;;;;;;1.02;0.90;;;;;;;;;;5108274;28;20499;-79
2023/10/27 07:24:08;;;;;;;3.63;1.17;;;;;;;;;;5108103;28;20035;-75
2023/10/27 07:26:37;;;;;;;12.13;1.55;;;;;;;;;;5089312;28;20039;-75
2023/10/27 07:29:03;;;;;;;4.13;1.07;;;;;;;;;;5108219;28;20028;-76
2023/10/27 07:31:32;;;;;;;5.15;1.35;;;;;;;;;;5106038;28;20297;-75
2023/10/27 07:33:58;;;;;;;9.68;2.55;;;;;;;;;;5108242;28;20041;-77
2023/10/27 07:36:24;;;;;;;6.50;1.25;;;;;;;;;;5089751;28;20047;-76
2023/10/27 07:38:55;;;;;;;6.28;1.65;;;;;;;;;;5106854;28;20028;-77
2023/10/27 07:41:21;;;;;;;1.27;0.45;;;;;;;;;;5072131;28;20035;-77
2023/10/27 07:43:50;;;;;;;0.70;0.40;;;;;;;;;;5094687;28;20059;-78
2023/10/27 07:46:18;;;;;;;8.68;1.38;;;;;;;;;;5096423;28;20378;-79
2023/10/27 07:48:56;;;;;;;7.97;1.23;;;;;;;;;;5069368;28;20032;-79
2023/10/27 07:51:23;;;;;;;0.43;0.20;;;;;;;;;;5102942;28;20031;-75
2023/10/27 07:53:49;;;;;;;8.35;1.75;;;;;;;;;;5107579;28;20040;-75
2023/10/27 07:56:17;;;;;;;1.45;0.63;;;;;;;;;;5106988;28;20063;-77
2023/10/27 07:58:44;;;;;;;0.20;0.20;;;;;;;;;;5106427;28;20164;-76
2023/10/27 08:01:09;;;;;;;10.45;2.78;;;;;;;;;;5096618;28;20463;-79
2023/10/27 08:03:35;;;;;;;7.13;1.70;;;;;;;;;;5078485;28;20040;-78
2023/10/27 08:06:04;;;;;;;2.50;1.08;;;;;;;;;;5087366;28;20115;-77
2023/10/27 08:08:30;;;;;;;;;;;;;;;;;;5068574;28;21526;-79
2023/10/27 08:10:56;;;;;;;7.00;1.10;;;;;;;;;;5091944;28;19912;-79
2023/10/27 08:13:22;;;;;;;7.68;1.60;;;;;;;;;;5106721;28;20043;-78
2023/10/27 08:15:48;;;;;;;7.25;2.55;;;;;;;;;;5106363;28;20077;-74
2023/10/27 08:18:13;;;;;;;10.95;3.15;;;;;;;;;;5105892;28;20031;-75
2023/10/27 08:20:42;;;;;;;4.13;0.68;;;;;;;;;;5101311;28;20121;-78
2023/10/27 08:23:16;;;;;;;6.38;1.02;;;;;;;;;;5083073;28;20073;-75
2023/10/27 08:25:42;;;;;;;10.65;2.50;;;;;;;;;;5092107;28;20391;-73
2023/10/27 08:28:08;;;;;;;5.15;1.10;;;;;;;;;;5111229;28;20028;-74
2023/10/27 08:30:33;;;;;;;14.18;2.50;;;;;;;;;;5110528;28;20471;-73
2023/10/27 08:33:01;;;;;;;3.78;1.23;;;;;;;;;;5105407;28;20023;-74
2023/10/27 08:35:36;;;;;;;10.10;1.63;;;;;;;;;;5087701;28;20093;-73
2023/10/27 08:38:07;;;;;;;8.65;1.83;;;;;;;;;;5110951;28;20036;-73
2023/10/27 08:40:34;;;;;;;8.93;1.65;;;;;;;;;;5092272;28;20027;-77
2023/10/27 08:42:59;;;;;;;24.30;1.42;;;;;;;;;;5092593;28;20467;-72
2023/10/27 08:45:27;;;;;;;9.43;1.73;;;;;;;;;;5110532;28;20112;-73
2023/10/27 08:47:55;;;;;;;9.68;2.05;;;;;;;;;;5110420;28;20406;-72
2023/10/27 08:50:23;;;;;;;13.27;1.88;;;;;;;;;;5110033;28;20028;-71
2023/10/27 08:52:50;;;;;;;6.57;3.10;;;;;;;;;;5109863;28;20084;-72
2023/10/27 08:55:16;;;;;;;1.48;0.52;;;;;;;;;;5108620;28;20112;-77
2023/10/27 08:58:00;;;;;;;5.07;1.25;;;;;;;;;;5106958;28;20034;-76
2023/10/27 09:00:31;;;;;;;9.27;1.92;;;;;;;;;;5092019;28;20439;-75
2023/10/27 09:02:56;;;;;;;8.13;3.17;;;;;;;;;;5110317;28;20036;-73
2023/10/27 09:05:24;;;;;;;18.92;2.17;;;;;;;;;;5091887;28;20046;-75
2023/10/27 09:07:53;;;;;;;3.95;1.10;;;;;;;;;;5110352;28;20031;-77
2023/10/27 09:10:19;;;;;;;14.80;2.03;;;;;;;;;;5109728;28;20119;-75
2023/10/27 09:12:46;;;;;;;0.93;0.60;;;;;;;;;;5109431;28;20084;-71
2023/10/27 09:15:13;;;;;;;4.93;1.35;;;;;;;;;;5110353;28;20035;-73
2023/10/27 09:17:57;;;;;;;7.53;1.33;;;;;;;;;;5109830;28;20049;-71
2023/10/27 09:20:23;;;;;;;4.55;1.67;;;;;;;;;;5109658;28;20032;-73
2023/10/27 09:23:04;;;;;;;2.45;0.88;;;;;;;;;;5109346;28;20498;-73
2023/10/27 09:25:31;;;;;;;6.05;0.70;;;;;;;;;;5109923;28;20040;-75
2023/10/27 09:27:58;;;;;;;8.00;1.25;;;;;;;;;;5109878;28;20161;-74
2023/10/27 09:30:26;;;;;;;5.95;1.02;;;;;;;;;;5108660;28;20035;-72
2023/10/27 09:32:52;;;;;;;9.30;1.92;;;;;;;;;;5108606;28;20036;-73
2023/10/27 09:35:18;;;;;;;9.38;1.90;;;;;;;;;;5089933;28;20043;-73
2023/10/27 09:37:46;;;;;;;5.72;1.45;;;;;;;;;;5108127;28;20036;-72
2023/10/27 09:40:13;;;;;;;9.68;2.65;;;;;;;;;;5109185;28;20043;-72
2023/10/27 09:42:39;;;;;;;2.15;0.55;;;;;;;;;;5108155;28;20031;-73
2023/10/27 09:45:11;;;;;;;1.02;0.63;;;;;;;;;;5108172;28;20491;-72
2023/10/27 09:47:47;;;;;;;1.02;0.28;;;;;;;;;;5106854;28;20072;-71
2023/10/27 09:50:24;;;;;;;6.65;1.08;;;;;;;;;;5107320;28;20164;-73
2023/10/27 09:52:50;;;;;;;1.45;0.77;;;;;;;;;;5086961;28;20042;-71
2023/10/27 09:55:19;;;;;;;6.05;1.08;;;;;;;;;;5106700;28;20036;-73
2023/10/27 09:57:45;;;;;;;8.07;0.93;;;;;;;;;;5107984;28;20019;-71
2023/10/27 10:00:13;;;;;;;5.68;0.73;;;;;;;;;;5108163;28;20232;-72
2023/10/27 10:02:39;;;;;;;3.47;1.05;;;;;;;;;;5107417;28;20035;-72
2023/10/27 10:05:08;;;;;;;1.00;0.70;;;;;;;;;;5107399;28;20553;-73
2023/10/27 10:07:34;;;;;;;0.45;0.25;;;;;;;;;;5109091;28;20039;-72
2023/10/27 10:10:17;;;;;;;2.50;0.75;;;;;;;;;;5110043;28;20075;-73
2023/10/27 10:13:01;;;;;;;0.57;0.32;;;;;;;;;;5108843;28;20034;-73
2023/10/27 10:15:36;;;;;;;3.65;0.95;;;;;;;;;;5109673;28;20032;-72
2023/10/27 10:18:06;;;;;;;0.43;0.30;;;;;;;;;;5109701;28;20034;-72
2023/10/27 10:20:41;;;;;;;2.60;0.77;;;;;;;;;;5109890;28;20091;-72
2023/10/27 10:23:07;;;;;;;3.42;0.52;;;;;;;;;;5109628;28;20110;-72
2023/10/27 10:25:34;;;;;;;4.03;0.95;;;;;;;;;;5110325;28;20123;-71
2023/10/27 10:28:08;;;;;;;2.85;0.85;;;;;;;;;;5109542;28;20047;-73
2023/10/27 10:30:34;;;;;;;1.58;0.57;;;;;;;;;;5090179;28;20040;-72
2023/10/27 10:33:20;;;;;;;5.95;0.88;;;;;;;;;;5108941;28;20085;-72
2023/10/27 10:35:46;;;;;;;0.52;0.38;;;;;;;;;;5109295;28;20498;-73
2023/10/27 10:38:24;;;;;;;2.47;0.35;;;;;;;;;;5109463;28;20115;-73
2023/10/27 10:40:50;;;;;;;6.10;0.80;;;;;;;;;;5108886;28;20046;-73
2023/10/27 10:43:19;;;;;;;0.75;0.47;;;;;;;;;;5109016;28;20383;-73
2023/10/27 10:45:45;;;;;;;18.98;6.72;;;;;;;;;;5109237;28;20093;-74
2023/10/27 10:48:12;;;;;;;0.55;0.40;;;;;;;;;;5090085;28;20122;-72
2023/10/27 10:50:38;;;;;;;2.10;0.40;;;;;;;;;;5089654;28;20595;-73
2023/10/27 10:53:30;;;;;;;2.03;0.63;;;;;;;;;;5108598;28;20036;-72
2023/10/27 10:55:57;;;;;;;0.25;0.20;;;;;;;;;;5105242;28;20101;-73
2023/10/27 10:58:23;;;;;;;1.63;1.10;;;;;;;;;;5109063;28;20076;-72
2023/10/27 11:00:49;;;;;;;2.55;0.80;;;;;;;;;;5108738;28;20050;-72
2023/10/27 11:03:15;;;;;;;7.03;2.30;;;;;;;;;;5108366;28;20039;-72
2023/10/27 11:05:41;;;;;;;3.60;1.17;;;;;;;;;;5109000;28;20656;-73
2023/10/27 11:08:07;;;;;;;5.38;0.93;;;;;;;;;;5108955;28;20031;-73
2023/10/27 11:10:33;;;;;;;0.22;0.20;;;;;;;;;;5108460;28;20041;-73
2023/10/27 11:13:05;;;;;;;2.38;0.63;;;;;;;;;;5088792;28;20032;-73
2023/10/27 11:15:44;;;;;;;0.55;0.32;;;;;;;;;;5069475;28;20036;-73
2023/10/27 11:18:11;;;;;;;1.45;1.27;;;;;;;;;;5088775;28;20028;-71
2023/10/27 11:20:38;;;;;;;2.10;0.52;;;;;;;;;;5069936;28;20031;-72
2023/10/27 11:23:10;;;;;;;0.40;0.40;;;;;;;;;;5088309;28;20035;-73
2023/10/27 11:25:36;;;;;;;1.55;0.50;;;;;;;;;;5087864;28;20467;-73
2023/10/27 11:28:21;;;;;;;4.70;1.08;;;;;;;;;;5088270;28;20039;-72
2023/10/27 11:31:19;;;;;;;3.03;1.10;;;;;;;;;;5087700;28;20035;-72
2023/10/27 11:33:58;;;;;;;4.40;0.43;;;;;;;;;;5068691;28;20605;-72
2023/10/27 11:36:24;;;;;;;1.40;0.40;;;;;;;;;;5101879;28;20376;-72
2023/10/27 11:38:50;;;;;;;0.30;0.20;;;;;;;;;;5108206;28;20336;-73
2023/10/27 11:41:15;;;;;;;3.90;0.52;;;;;;;;;;5102505;28;20480;-73
2023/10/27 11:43:41;;;;;;;3.67;0.82;;;;;;;;;;5087559;28;20032;-71
2023/10/27 11:46:13;;;;;;;0.85;0.40;;;;;;;;;;5087589;28;20036;-71
2023/10/27 11:48:39;;;;;;;7.10;0.95;;;;;;;;;;5087265;28;20487;-70
2023/10/27 11:51:05;;;;;;;3.90;0.80;;;;;;;;;;5092543;28;20060;-70
2023/10/27 11:53:31;;;;;;;2.88;0.63;;;;;;;;;;5099639;28;20056;-72
2023/10/27 11:55:56;;;;;;;4.55;0.80;;;;;;;;;;5088737;28;20123;-70
2023/10/27 11:58:22;;;;;;;0.38;0.20;;;;;;;;;;5097802;28;20081;-70
2023/10/27 12:00:48;;;;;;;7.82;1.45;;;;;;;;;;5085495;28;20040;-69
2023/10/27 12:03:13;;;;;;;3.50;1.13;;;;;;;;;;5082666;28;20102;-70
2023/10/27 12:05:39;;;;;;;4.72;0.88;;;;;;;;;;5105150;28;20510;-69
2023/10/27 12:08:05;;;;;;;2.20;0.70;;;;;;;;;;5105487;28;20035;-70
2023/10/27 12:10:34;;;;;;;2.30;0.55;;;;;;;;;;5105635;28;20032;-70
2023/10/27 12:13:03;;;;;;;1.67;0.40;;;;;;;;;;5105418;28;20035;-70
2023/10/27 12:15:29;;;;;;;2.00;0.73;;;;;;;;;;5105375;28;20399;-71
2023/10/27 12:17:54;;;;;;;8.15;2.65;;;;;;;;;;5108221;28;20034;-70
2023/10/27 12:20:20;;;;;;;2.65;0.60;;;;;;;;;;5108141;28;20023;-70
2023/10/27 12:22:46;;;;;;;2.33;0.43;;;;;;;;;;5107543;28;20392;-69
2023/10/27 12:25:12;;;;;;;5.57;1.65;;;;;;;;;;5107191;28;20075;-69
2023/10/27 12:27:38;;;;;;;2.67;0.95;;;;;;;;;;5103161;28;20040;-70
2023/10/27 12:30:04;;;;;;;1.35;0.68;;;;;;;;;;5100102;28;20042;-71
2023/10/27 12:32:32;;;;;;;0.65;0.47;;;;;;;;;;5100290;28;20910;-70
2023/10/27 12:34:59;;;;;;;3.20;0.80;;;;;;;;;;5086610;28;20038;-71
2023/10/27 12:37:24;;;;;;;2.03;0.45;;;;;;;;;;5086166;28;20115;-70
2023/10/27 12:39:50;;;;;;;1.33;0.30;;;;;;;;;;5086958;28;20420;-70
2023/10/27 12:42:16;;;;;;;0.82;0.60;;;;;;;;;;5103834;28;20351;-70
2023/10/27 12:44:42;;;;;;;3.35;1.10;;;;;;;;;;5102331;28;20471;-71
2023/10/27 12:47:07;;;;;;;6.07;0.82;;;;;;;;;;5106670;28;20062;-71
2023/10/27 12:49:33;;;;;;;2.17;0.73;;;;;;;;;;5106018;28;20064;-70
2023/10/27 12:51:59;;;;;;;2.90;1.20;;;;;;;;;;5104674;28;20117;-71
2023/10/27 12:54:25;;;;;;;0.50;0.50;;;;;;;;;;5086325;28;20317;-71
2023/10/27 12:56:51;;;;;;;2.38;0.73;;;;;;;;;;5104574;28;20027;-71
2023/10/27 12:59:17;;;;;;;2.50;0.68;;;;;;;;;;5106879;28;20035;-71
2023/10/27 13:01:46;;;;;;;2.05;0.60;;;;;;;;;;5104255;28;20391;-72
2023/10/27 13:04:13;;;;;;;5.57;1.23;;;;;;;;;;5106051;28;20048;-71
2023/10/27 13:06:38;;;;;;;2.83;1.00;;;;;;;;;;5106630;28;20467;-70
2023/10/27 13:09:04;;;;;;;0.32;0.30;;;;;;;;;;5106930;28;20044;-70
2023/10/27 13:11:31;;;;;;;0.20;0.20;;;;;;;;;;5108737;28;20032;-70
2023/10/27 13:13:56;;;;;;;8.35;1.35;;;;;;;;;;5109847;28;20088;-70
2023/10/27 13:16:22;;;;;;;2.30;1.30;;;;;;;;;;5110057;28;20043;-71
2023/10/27 13:18:48;;;;;;;1.35;0.45;;;;;;;;;;5109728;28;20031;-70
2023/10/27 13:21:14;;;;;;;3.58;1.05;;;;;;;;;;5110507;28;20043;-71
2023/10/27 13:23:43;;;;;;;1.58;1.42;;;;;;;;;;5091837;28;20475;-70
2023/10/27 13:26:15;;;;;;;1.17;0.45;;;;;;;;;;5109947;28;20027;-72
2023/10/27 13:28:40;;;;;;;3.25;1.48;;;;;;;;;;5090741;28;20050;-71
2023/10/27 13:31:07;;;;;;;0.57;0.35;;;;;;;;;;5108978;28;20126;-70
2023/10/27 13:33:33;;;;;;;1.40;0.40;;;;;;;;;;5109553;28;20383;-70
2023/10/27 13:36:02;;;;;;;2.92;0.75;;;;;;;;;;5109874;28;20042;-72
2023/10/27 13:38:28;;;;;;;8.90;0.80;;;;;;;;;;5108866;28;20055;-70
2023/10/27 13:40:53;;;;;;;2.03;0.68;;;;;;;;;;5109689;28;20036;-70
2023/10/27 13:43:21;;;;;;;4.00;1.33;;;;;;;;;;5110189;28;20047;-70
2023/10/27 13:45:56;;;;;;;0.25;0.22;;;;;;;;;;5109475;28;20027;-71
2023/10/27 13:48:23;;;;;;;0.77;0.40;;;;;;;;;;5110149;28;20065;-70
2023/10/27 13:50:48;;;;;;;7.00;0.75;;;;;;;;;;5109287;28;20015;-70
2023/10/27 13:53:14;;;;;;;0.73;0.52;;;;;;;;;;5109074;28;20100;-72
2023/10/27 13:55:43;;;;;;;0.57;0.30;;;;;;;;;;5110163;28;20175;-71
2023/10/27 13:58:08;;;;;;;3.70;0.70;;;;;;;;;;5109080;28;20034;-71
2023/10/27 14:00:34;;;;;;;0.30;0.30;;;;;;;;;;5103526;28;20118;-71
2023/10/27 14:03:00;;;;;;;0.50;0.20;;;;;;;;;;5096330;28;20023;-71
2023/10/27 14:05:25;;;;;;;0.40;0.30;;;;;;;;;;5096831;28;20318;-71
2023/10/27 14:07:51;;;;;;;0.30;0.30;;;;;;;;;;5107170;28;20032;-70
2023/10/27 14:10:18;;;;;;;6.45;3.25;;;;;;;;;;5098594;28;20024;-71
2023/10/27 14:12:44;;;;;;;5.55;1.05;;;;;;;;;;5096701;28;20738;-71
2023/10/27 14:15:13;;;;;;;1.50;0.55;;;;;;;;;;5096735;28;20073;-70
2023/10/27 14:17:39;;;;;;;0.35;0.28;;;;;;;;;;5087844;28;20516;-70
2023/10/27 14:20:05;;;;;;;7.28;1.05;;;;;;;;;;5088889;28;20040;-71
2023/10/27 14:22:31;;;;;;;3.53;0.95;;;;;;;;;;5087074;28;20487;-71
2023/10/27 14:24:57;;;;;;;2.78;0.80;;;;;;;;;;5088432;28;20031;-70
2023/10/27 14:27:22;;;;;;;2.92;0.45;;;;;;;;;;5075640;28;20089;-71
2023/10/27 14:29:48;;;;;;;4.53;3.35;;;;;;;;;;5100834;28;20424;-71
2023/10/27 14:32:15;;;;;;;4.57;1.55;;;;;;;;;;5092613;28;20046;-71
2023/10/27 14:34:41;;;;;;;0.20;0.20;;;;;;;;;;5092733;28;20421;-71
2023/10/27 14:37:07;;;;;;;5.03;1.05;;;;;;;;;;5098142;28;20027;-71
2023/10/27 14:39:37;;;;;;;2.58;0.88;;;;;;;;;;5105118;28;20068;-72
2023/10/27 14:42:04;;;;;;;0.63;0.60;;;;;;;;;;5103117;28;20031;-72
2023/10/27 14:44:29;;;;;;;0.20;0.20;;;;;;;;;;5104594;28;20042;-71
2023/10/27 14:46:55;;;;;;;2.28;1.02;;;;;;;;;;5108429;28;20028;-71